Port Loring, Canada
Current Conditions -  °F | °C
As of 9:13 AM on Friday 24 Oct 2014 (Local Time) from CYYB Reporting Station
Few Clouds Few Clouds  
Wind Chill: 36°   Ceiling: Unl
Heat Index: 36°   Visibility: 15mi
Dew Point: 36°   Wind: 0mph
Humidity: 100%   Direction: NA
Pressure: 29.99"   Gusts: NA
Location:  45.92°N, 79.98°W
Report Text: CYYB 241313Z 00000KT 15SM R08/2600V5000FT/N FEW280 02/02 A2999 RMK CI2 FG OVR CITY SLP172
Loading
Personal Weather Stations






























Interactive Weather Map
Tropical Storm Tracking
New forecast layout! Learn more

10-Day Weather Forecast

Advertisements
Track Severe Weather on mobile